sensor_id;sensor_type;location;lat;lon;timestamp;pressure;altitude;pressure_sealevel;temperature
60936;BMP280;46804;51.786;19.520;2023-07-13T00:03:12;159322.06;;;19.92
60936;BMP280;46804;51.786;19.520;2023-07-13T00:07:13;159305.31;;;19.86
60936;BMP280;46804;51.786;19.520;2023-07-13T00:11:15;159305.31;;;19.86
60936;BMP280;46804;51.786;19.520;2023-07-13T00:15:20;159335.00;;;19.97
60936;BMP280;46804;51.786;19.520;2023-07-13T00:19:23;159280.69;;;19.76
60936;BMP280;46804;51.786;19.520;2023-07-13T00:23:23;159293.69;;;19.81
60936;BMP280;46804;51.786;19.520;2023-07-13T00:27:24;159306.59;;;19.86
60936;BMP280;46804;51.786;19.520;2023-07-13T00:31:27;159329.84;;;19.95
60936;BMP280;46804;51.786;19.520;2023-07-13T00:35:30;159342.75;;;20.00
60936;BMP280;46804;51.786;19.520;2023-07-13T00:39:31;159316.94;;;19.90
60936;BMP280;46804;51.786;19.520;2023-07-13T00:43:31;159270.34;;;19.73
60936;BMP280;46804;51.786;19.520;2023-07-13T00:47:32;159245.81;;;19.63
60936;BMP280;46804;51.786;19.520;2023-07-13T00:51:40;159270.34;;;19.73
60936;BMP280;46804;51.786;19.520;2023-07-13T00:55:41;159310.44;;;19.88
60936;BMP280;46804;51.786;19.520;2023-07-13T00:59:46;159285.91;;;19.78
60936;BMP280;46804;51.786;19.520;2023-07-13T01:03:47;159302.69;;;19.85
60936;BMP280;46804;51.786;19.520;2023-07-13T01:07:50;159296.25;;;19.82
60936;BMP280;46804;51.786;19.520;2023-07-13T01:11:52;159292.34;;;19.81
60936;BMP280;46804;51.786;19.520;2023-07-13T01:15:55;159322.06;;;19.92
60936;BMP280;46804;51.786;19.520;2023-07-13T01:19:57;159306.59;;;19.86
60936;BMP280;46804;51.786;19.520;2023-07-13T01:23:57;159291.09;;;19.80
60936;BMP280;46804;51.786;19.520;2023-07-13T01:27:58;159283.28;;;19.77
60936;BMP280;46804;51.786;19.520;2023-07-13T01:31:59;159252.25;;;19.66
60936;BMP280;46804;51.786;19.520;2023-07-13T01:36:01;159213.50;;;19.51
60936;BMP280;46804;51.786;19.520;2023-07-13T01:40:04;159241.94;;;19.62
60936;BMP280;46804;51.786;19.520;2023-07-13T01:44:05;159249.72;;;19.65
60936;BMP280;46804;51.786;19.520;2023-07-13T01:48:05;159278.13;;;19.75
60936;BMP280;46804;51.786;19.520;2023-07-13T01:52:07;159274.22;;;19.74
60936;BMP280;46804;51.786;19.520;2023-07-13T01:56:08;159283.28;;;19.77
60936;BMP280;46804;51.786;19.520;2023-07-13T02:00:10;159288.53;;;19.79
60936;BMP280;46804;51.786;19.520;2023-07-13T02:04:11;159254.88;;;19.67
60936;BMP280;46804;51.786;19.520;2023-07-13T02:08:12;159269.06;;;19.72
60936;BMP280;46804;51.786;19.520;2023-07-13T02:12:12;159263.88;;;19.70
60936;BMP280;46804;51.786;19.520;2023-07-13T02:16:13;159226.47;;;19.56
60936;BMP280;46804;51.786;19.520;2023-07-13T02:20:14;159245.81;;;19.63
60936;BMP280;46804;51.786;19.520;2023-07-13T02:24:14;159241.94;;;19.62
60936;BMP280;46804;51.786;19.520;2023-07-13T02:28:18;159229.03;;;19.57
60936;BMP280;46804;51.786;19.520;2023-07-13T02:32:18;159223.84;;;19.55
60936;BMP280;46804;51.786;19.520;2023-07-13T02:36:19;159244.53;;;19.63
60936;BMP280;46804;51.786;19.520;2023-07-13T02:40:20;159258.72;;;19.68
60936;BMP280;46804;51.786;19.520;2023-07-13T02:44:21;159234.19;;;19.59
60936;BMP280;46804;51.786;19.520;2023-07-13T02:48:21;159243.25;;;19.62
60936;BMP280;46804;51.786;19.520;2023-07-13T02:52:22;159229.03;;;19.57
60936;BMP280;46804;51.786;19.520;2023-07-13T02:56:25;159241.94;;;19.62
60936;BMP280;46804;51.786;19.520;2023-07-13T03:00:27;159226.47;;;19.56
60936;BMP280;46804;51.786;19.520;2023-07-13T03:04:28;159182.53;;;19.39
60936;BMP280;46804;51.786;19.520;2023-07-13T03:08:29;159204.50;;;19.47
60936;BMP280;46804;51.786;19.520;2023-07-13T03:12:29;159209.69;;;19.49
60936;BMP280;46804;51.786;19.520;2023-07-13T03:16:30;159194.16;;;19.43
60936;BMP280;46804;51.786;19.520;2023-07-13T03:20:34;159198.06;;;19.45
60936;BMP280;46804;51.786;19.520;2023-07-13T03:24:35;159222.56;;;19.54
60936;BMP280;46804;51.786;19.520;2023-07-13T03:28:39;159231.63;;;19.58
60936;BMP280;46804;51.786;19.520;2023-07-13T03:32:39;159235.47;;;19.59
60936;BMP280;46804;51.786;19.520;2023-07-13T03:36:40;159239.38;;;19.61
60936;BMP280;46804;51.786;19.520;2023-07-13T03:40:42;159239.38;;;19.61
60936;BMP280;46804;51.786;19.520;2023-07-13T03:44:43;159232.91;;;19.58
60936;BMP280;46804;51.786;19.520;2023-07-13T03:48:52;159260.06;;;19.69
60936;BMP280;46804;51.786;19.520;2023-07-13T03:52:53;159294.97;;;19.82
60936;BMP280;46804;51.786;19.520;2023-07-13T03:56:54;159289.81;;;19.80
60936;BMP280;46804;51.786;19.520;2023-07-13T04:00:56;159303.97;;;19.85
60936;BMP280;46804;51.786;19.520;2023-07-13T04:04:57;159314.31;;;19.89
60936;BMP280;46804;51.786;19.520;2023-07-13T04:08:59;159315.59;;;19.90
60936;BMP280;46804;51.786;19.520;2023-07-13T04:13:00;159325.94;;;19.94
60936;BMP280;46804;51.786;19.520;2023-07-13T04:17:01;159329.84;;;19.95
60936;BMP280;46804;51.786;19.520;2023-07-13T04:21:02;159327.22;;;19.94
60936;BMP280;46804;51.786;19.520;2023-07-13T04:25:03;159346.63;;;20.02
60936;BMP280;46804;51.786;19.520;2023-07-13T04:29:06;159387.97;;;20.17
60936;BMP280;46804;51.786;19.520;2023-07-13T04:33:07;159395.69;;;20.20
60936;BMP280;46804;51.786;19.520;2023-07-13T04:37:09;159376.34;;;20.13
60936;BMP280;46804;51.786;19.520;2023-07-13T04:41:10;159377.63;;;20.13
60936;BMP280;46804;51.786;19.520;2023-07-13T04:45:11;159402.22;;;20.23
60936;BMP280;46804;51.786;19.520;2023-07-13T04:49:13;159394.41;;;20.20
60936;BMP280;46804;51.786;19.520;2023-07-13T04:53:13;159408.66;;;20.25
60936;BMP280;46804;51.786;19.520;2023-07-13T04:57:14;159413.81;;;20.27
60936;BMP280;46804;51.786;19.520;2023-07-13T05:01:15;159446.09;;;20.40
60936;BMP280;46804;51.786;19.520;2023-07-13T05:05:15;159504.28;;;20.62
60936;BMP280;46804;51.786;19.520;2023-07-13T05:09:16;159526.28;;;20.70
60936;BMP280;46804;51.786;19.520;2023-07-13T05:13:17;159593.50;;;20.96
60936;BMP280;46804;51.786;19.520;2023-07-13T05:17:18;159581.88;;;20.91
60936;BMP280;46804;51.786;19.520;2023-07-13T05:21:19;159589.59;;;20.94
60936;BMP280;46804;51.786;19.520;2023-07-13T05:25:20;159631.00;;;21.10
60936;BMP280;46804;51.786;19.520;2023-07-13T05:29:21;159689.19;;;21.32
60936;BMP280;46804;51.786;19.520;2023-07-13T05:33:23;159737.06;;;21.50
60936;BMP280;46804;51.786;19.520;2023-07-13T05:37:24;159797.84;;;21.74
60936;BMP280;46804;51.786;19.520;2023-07-13T05:41:25;159819.84;;;21.82
60936;BMP280;46804;51.786;19.520;2023-07-13T05:45:26;159887.13;;;22.08
60936;BMP280;46804;51.786;19.520;2023-07-13T05:49:27;159955.72;;;22.34
60936;BMP280;46804;51.786;19.520;2023-07-13T05:53:27;159989.31;;;22.47
60936;BMP280;46804;51.786;19.520;2023-07-13T05:57:30;160060.53;;;22.74
60936;BMP280;46804;51.786;19.520;2023-07-13T06:01:31;160059.25;;;22.73
60936;BMP280;46804;51.786;19.520;2023-07-13T06:05:33;160022.97;;;22.59
60936;BMP280;46804;51.786;19.520;2023-07-13T06:09:34;160143.38;;;23.05
60936;BMP280;46804;51.786;19.520;2023-07-13T06:13:35;160246.94;;;23.45
60936;BMP280;46804;51.786;19.520;2023-07-13T06:17:36;160328.59;;;23.76
60936;BMP280;46804;51.786;19.520;2023-07-13T06:21:36;160342.81;;;23.81
60936;BMP280;46804;51.786;19.520;2023-07-13T06:25:37;160398.50;;;24.02
60936;BMP280;46804;51.786;19.520;2023-07-13T06:29:38;160476.31;;;24.32
60936;BMP280;46804;51.786;19.520;2023-07-13T06:33:40;160551.44;;;24.60
60936;BMP280;46804;51.786;19.520;2023-07-13T06:37:40;160500.91;;;24.41
60936;BMP280;46804;51.786;19.520;2023-07-13T06:41:41;160572.13;;;24.68
60936;BMP280;46804;51.786;19.520;2023-07-13T06:45:44;160730.31;;;25.28
60936;BMP280;46804;51.786;19.520;2023-07-13T06:49:50;160853.53;;;25.75
60936;BMP280;46804;51.786;19.520;2023-07-13T06:53:50;160971.53;;;26.20
60936;BMP280;46804;51.786;19.520;2023-07-13T06:57:51;161074.00;;;26.59
60936;BMP280;46804;51.786;19.520;2023-07-13T07:01:52;161207.66;;;27.10
60936;BMP280;46804;51.786;19.520;2023-07-13T07:05:52;161424.47;;;27.92
60936;BMP280;46804;51.786;19.520;2023-07-13T07:09:53;161503.72;;;28.22
60936;BMP280;46804;51.786;19.520;2023-07-13T07:13:54;161542.66;;;28.37
60936;BMP280;46804;51.786;19.520;2023-07-13T07:17:55;161566.03;;;28.46
60936;BMP280;46804;51.786;19.520;2023-07-13T07:21:56;161649.19;;;28.77
60936;BMP280;46804;51.786;19.520;2023-07-13T07:25:57;161553.06;;;28.41
60936;BMP280;46804;51.786;19.520;2023-07-13T07:29:58;161643.97;;;28.75
60936;BMP280;46804;51.786;19.520;2023-07-13T07:33:58;161525.78;;;28.31
60936;BMP280;46804;51.786;19.520;2023-07-13T07:37:59;161493.31;;;28.18
60936;BMP280;46804;51.786;19.520;2023-07-13T07:42:00;161447.88;;;28.01
60936;BMP280;46804;51.786;19.520;2023-07-13T07:46:00;161502.41;;;28.22
60936;BMP280;46804;51.786;19.520;2023-07-13T07:50:01;161371.25;;;27.72
60936;BMP280;46804;51.786;19.520;2023-07-13T07:54:03;161379.03;;;27.75
60936;BMP280;46804;51.786;19.520;2023-07-13T07:58:05;161320.63;;;27.53
60936;BMP280;46804;51.786;19.520;2023-07-13T08:02:06;161202.47;;;27.08
60936;BMP280;46804;51.786;19.520;2023-07-13T08:06:07;161105.13;;;26.71
60936;BMP280;46804;51.786;19.520;2023-07-13T08:10:08;161086.97;;;26.64
60936;BMP280;46804;51.786;19.520;2023-07-13T08:14:09;161019.56;;;26.38
60936;BMP280;46804;51.786;19.520;2023-07-13T08:18:10;160840.53;;;25.70
60936;BMP280;46804;51.786;19.520;2023-07-13T08:22:10;160735.47;;;25.30
60936;BMP280;46804;51.786;19.520;2023-07-13T08:26:11;160271.63;;;23.54
60936;BMP280;46804;51.786;19.520;2023-07-13T08:30:12;160083.81;;;22.83
60936;BMP280;46804;51.786;19.520;2023-07-13T08:34:12;160081.19;;;22.82
60936;BMP280;46804;51.786;19.520;2023-07-13T08:38:16;160022.97;;;22.59
60936;BMP280;46804;51.786;19.520;2023-07-13T08:42:39;160021.69;;;22.59
60936;BMP280;46804;51.786;19.520;2023-07-13T08:46:40;159924.66;;;22.22
60936;BMP280;46804;51.786;19.520;2023-07-13T08:50:52;159771.97;;;21.64
60936;BMP280;46804;51.786;19.520;2023-07-13T08:54:57;159805.59;;;21.77
60936;BMP280;46804;51.786;19.520;2023-07-13T08:59:02;159867.69;;;22.00
60936;BMP280;46804;51.786;19.520;2023-07-13T09:03:12;159932.38;;;22.25
60936;BMP280;46804;51.786;19.520;2023-07-13T09:07:41;159898.81;;;22.12
60936;BMP280;46804;51.786;19.520;2023-07-13T09:12:01;159879.31;;;22.05
60936;BMP280;46804;51.786;19.520;2023-07-13T09:16:09;159817.22;;;21.81
60936;BMP280;46804;51.786;19.520;2023-07-13T09:28:47;159609.03;;;21.02
60936;BMP280;46804;51.786;19.520;2023-07-13T09:32:52;159671.09;;;21.25
60936;BMP280;46804;51.786;19.520;2023-07-13T09:36:53;159655.56;;;21.19
60936;BMP280;46804;51.786;19.520;2023-07-13T09:40:59;159717.69;;;21.43
60936;BMP280;46804;51.786;19.520;2023-07-13T09:45:02;159702.16;;;21.37
60936;BMP280;46804;51.786;19.520;2023-07-13T09:49:03;159755.16;;;21.57
60936;BMP280;46804;51.786;19.520;2023-07-13T09:53:03;159773.28;;;21.64
60936;BMP280;46804;51.786;19.520;2023-07-13T09:57:13;159810.78;;;21.79
60936;BMP280;46804;51.786;19.520;2023-07-13T10:01:14;159832.75;;;21.87
60936;BMP280;46804;51.786;19.520;2023-07-13T10:05:16;159857.31;;;21.96
60936;BMP280;46804;51.786;19.520;2023-07-13T10:09:17;159841.84;;;21.90
60936;BMP280;46804;51.786;19.520;2023-07-13T10:13:27;159792.66;;;21.72
60936;BMP280;46804;51.786;19.520;2023-07-13T10:17:32;159888.41;;;22.08
60936;BMP280;46804;51.786;19.520;2023-07-13T10:21:46;159837.94;;;21.89
60936;BMP280;46804;51.786;19.520;2023-07-13T10:25:50;159837.94;;;21.89
60936;BMP280;46804;51.786;19.520;2023-07-13T10:30:00;159774.56;;;21.65
60936;BMP280;46804;51.786;19.520;2023-07-13T10:34:02;159800.41;;;21.75
60936;BMP280;46804;51.786;19.520;2023-07-13T10:38:06;159729.31;;;21.47
60936;BMP280;46804;51.786;19.520;2023-07-13T10:42:11;159746.13;;;21.54
60936;BMP280;46804;51.786;19.520;2023-07-13T10:46:16;159818.50;;;21.81
60936;BMP280;46804;51.786;19.520;2023-07-13T10:50:20;159809.50;;;21.78
60936;BMP280;46804;51.786;19.520;2023-07-13T11:02:38;159787.50;;;21.70
60936;BMP280;46804;51.786;19.520;2023-07-13T11:06:41;159709.88;;;21.40
60936;BMP280;46804;51.786;19.520;2023-07-13T11:10:53;159678.81;;;21.28
60936;BMP280;46804;51.786;19.520;2023-07-13T11:27:33;159720.25;;;21.44
60936;BMP280;46804;51.786;19.520;2023-07-13T11:31:37;159734.50;;;21.49
60936;BMP280;46804;51.786;19.520;2023-07-13T11:39:54;159981.56;;;22.44
60936;BMP280;46804;51.786;19.520;2023-07-13T11:44:02;160007.47;;;22.53
60936;BMP280;46804;51.786;19.520;2023-07-13T11:48:18;159995.84;;;22.49
60936;BMP280;46804;51.786;19.520;2023-07-13T11:52:22;159989.31;;;22.47
60936;BMP280;46804;51.786;19.520;2023-07-13T11:56:24;160007.47;;;22.53
60936;BMP280;46804;51.786;19.520;2023-07-13T12:00:29;159901.38;;;22.13
60936;BMP280;46804;51.786;19.520;2023-07-13T12:04:32;159955.72;;;22.34
60936;BMP280;46804;51.786;19.520;2023-07-13T12:08:39;160007.47;;;22.53
60936;BMP280;46804;51.786;19.520;2023-07-13T12:12:58;160069.56;;;22.77
60936;BMP280;46804;51.786;19.520;2023-07-13T12:17:00;160055.34;;;22.72
60936;BMP280;46804;51.786;19.520;2023-07-13T12:21:01;159989.31;;;22.47
60936;BMP280;46804;51.786;19.520;2023-07-13T12:25:04;159944.03;;;22.29
60936;BMP280;46804;51.786;19.520;2023-07-13T12:29:06;159953.13;;;22.33
60936;BMP280;46804;51.786;19.520;2023-07-13T12:33:11;159999.69;;;22.50
60936;BMP280;46804;51.786;19.520;2023-07-13T12:37:12;159979.00;;;22.43
60936;BMP280;46804;51.786;19.520;2023-07-13T12:41:15;159929.81;;;22.24
60936;BMP280;46804;51.786;19.520;2023-07-13T12:45:21;159900.09;;;22.13
60936;BMP280;46804;51.786;19.520;2023-07-13T12:49:29;159874.13;;;22.03
60936;BMP280;46804;51.786;19.520;2023-07-13T12:53:40;159893.56;;;22.10
60936;BMP280;46804;51.786;19.520;2023-07-13T12:57:50;159900.09;;;22.13
60936;BMP280;46804;51.786;19.520;2023-07-13T13:01:51;159963.47;;;22.37
60936;BMP280;46804;51.786;19.520;2023-07-13T13:06:03;160029.44;;;22.62
60936;BMP280;46804;51.786;19.520;2023-07-13T13:10:12;160063.09;;;22.75
60936;BMP280;46804;51.786;19.520;2023-07-13T13:14:13;160083.81;;;22.83
60936;BMP280;46804;51.786;19.520;2023-07-13T13:18:19;160118.78;;;22.96
60936;BMP280;46804;51.786;19.520;2023-07-13T13:22:21;160134.34;;;23.02
60936;BMP280;46804;51.786;19.520;2023-07-13T13:26:22;160113.63;;;22.94
60936;BMP280;46804;51.786;19.520;2023-07-13T13:30:23;160054.06;;;22.71
60936;BMP280;46804;51.786;19.520;2023-07-13T13:34:25;160069.56;;;22.77
60936;BMP280;46804;51.786;19.520;2023-07-13T13:38:27;160078.63;;;22.81
60936;BMP280;46804;51.786;19.520;2023-07-13T13:42:28;160143.38;;;23.05
60936;BMP280;46804;51.786;19.520;2023-07-13T13:46:29;160186.13;;;23.21
60936;BMP280;46804;51.786;19.520;2023-07-13T13:50:30;160237.91;;;23.41
60936;BMP280;46804;51.786;19.520;2023-07-13T13:54:31;160227.53;;;23.37
60936;BMP280;46804;51.786;19.520;2023-07-13T13:58:31;160222.34;;;23.35
60936;BMP280;46804;51.786;19.520;2023-07-13T14:02:32;160235.28;;;23.40
60936;BMP280;46804;51.786;19.520;2023-07-13T14:06:33;160227.53;;;23.37
60936;BMP280;46804;51.786;19.520;2023-07-13T14:10:33;160234.00;;;23.40
60936;BMP280;46804;51.786;19.520;2023-07-13T14:14:34;160252.13;;;23.47
60936;BMP280;46804;51.786;19.520;2023-07-13T14:18:35;160218.50;;;23.34
60936;BMP280;46804;51.786;19.520;2023-07-13T14:22:35;160276.81;;;23.56
60936;BMP280;46804;51.786;19.520;2023-07-13T14:26:38;160333.78;;;23.78
60936;BMP280;46804;51.786;19.520;2023-07-13T14:30:40;160294.91;;;23.63
60936;BMP280;46804;51.786;19.520;2023-07-13T14:34:40;160298.81;;;23.64
60936;BMP280;46804;51.786;19.520;2023-07-13T14:38:41;160263.78;;;23.51
60936;BMP280;46804;51.786;19.520;2023-07-13T14:42:41;160275.47;;;23.55
60936;BMP280;46804;51.786;19.520;2023-07-13T14:46:44;160324.69;;;23.74
60936;BMP280;46804;51.786;19.520;2023-07-13T14:50:45;160377.78;;;23.94
60936;BMP280;46804;51.786;19.520;2023-07-13T14:54:46;160382.97;;;23.96
60936;BMP280;46804;51.786;19.520;2023-07-13T14:58:47;160437.38;;;24.17
60936;BMP280;46804;51.786;19.520;2023-07-13T15:02:50;160417.91;;;24.10
60936;BMP280;46804;51.786;19.520;2023-07-13T15:07:00;160498.28;;;24.40
60936;BMP280;46804;51.786;19.520;2023-07-13T15:11:02;160504.81;;;24.43
60936;BMP280;46804;51.786;19.520;2023-07-13T15:15:05;160587.69;;;24.74
60936;BMP280;46804;51.786;19.520;2023-07-13T15:19:09;160577.31;;;24.70
60936;BMP280;46804;51.786;19.520;2023-07-13T15:23:12;160522.94;;;24.50
60936;BMP280;46804;51.786;19.520;2023-07-13T15:27:13;160582.50;;;24.72
60936;BMP280;46804;51.786;19.520;2023-07-13T15:31:22;160620.09;;;24.87
60936;BMP280;46804;51.786;19.520;2023-07-13T15:35:25;160657.72;;;25.01
60936;BMP280;46804;51.786;19.520;2023-07-13T15:39:26;160730.31;;;25.28
60936;BMP280;46804;51.786;19.520;2023-07-13T15:43:32;160810.72;;;25.59
60936;BMP280;46804;51.786;19.520;2023-07-13T15:47:34;160862.56;;;25.79
60936;BMP280;46804;51.786;19.520;2023-07-13T15:51:35;160950.78;;;26.12
60936;BMP280;46804;51.786;19.520;2023-07-13T15:55:39;160928.72;;;26.04
60936;BMP280;46804;51.786;19.520;2023-07-13T15:59:41;160939.03;;;26.08
60936;BMP280;46804;51.786;19.520;2023-07-13T16:03:43;160937.75;;;26.07
60936;BMP280;46804;51.786;19.520;2023-07-13T16:07:45;160898.84;;;25.92
60936;BMP280;46804;51.786;19.520;2023-07-13T16:11:47;160745.88;;;25.34
60936;BMP280;46804;51.786;19.520;2023-07-13T16:15:48;160701.78;;;25.18
60936;BMP280;46804;51.786;19.520;2023-07-13T16:19:49;160748.44;;;25.35
60936;BMP280;46804;51.786;19.520;2023-07-13T16:23:50;160782.13;;;25.48
60936;BMP280;46804;51.786;19.520;2023-07-13T16:27:53;160678.47;;;25.09
60936;BMP280;46804;51.786;19.520;2023-07-13T16:31:55;160738.06;;;25.31
60936;BMP280;46804;51.786;19.520;2023-07-13T16:35:56;160786.06;;;25.50
60936;BMP280;46804;51.786;19.520;2023-07-13T16:39:59;160706.97;;;25.20
60936;BMP280;46804;51.786;19.520;2023-07-13T16:44:01;160652.53;;;24.99
60936;BMP280;46804;51.786;19.520;2023-07-13T16:48:09;160509.94;;;24.45
60936;BMP280;46804;51.786;19.520;2023-07-13T16:52:14;160504.81;;;24.43
60936;BMP280;46804;51.786;19.520;2023-07-13T16:56:19;160380.41;;;23.95
60936;BMP280;46804;51.786;19.520;2023-07-13T17:00:25;160515.13;;;24.47
60936;BMP280;46804;51.786;19.520;2023-07-13T17:04:30;160548.81;;;24.59
60936;BMP280;46804;51.786;19.520;2023-07-13T17:08:30;160564.38;;;24.65
60936;BMP280;46804;51.786;19.520;2023-07-13T17:12:32;160554.00;;;24.61
60936;BMP280;46804;51.786;19.520;2023-07-13T17:16:34;160541.06;;;24.56
60936;BMP280;46804;51.786;19.520;2023-07-13T17:20:37;160468.50;;;24.29
60936;BMP280;46804;51.786;19.520;2023-07-13T17:24:43;160447.75;;;24.21
60936;BMP280;46804;51.786;19.520;2023-07-13T17:28:44;160464.63;;;24.27
60936;BMP280;46804;51.786;19.520;2023-07-13T17:32:47;160468.50;;;24.29
60936;BMP280;46804;51.786;19.520;2023-07-13T17:36:49;160363.56;;;23.89
60936;BMP280;46804;51.786;19.520;2023-07-13T17:40:49;160313.03;;;23.70
60936;BMP280;46804;51.786;19.520;2023-07-13T17:44:50;160305.28;;;23.67
60936;BMP280;46804;51.786;19.520;2023-07-13T17:48:50;160254.75;;;23.48
60936;BMP280;46804;51.786;19.520;2023-07-13T17:52:53;160278.09;;;23.56
60936;BMP280;46804;51.786;19.520;2023-07-13T17:56:55;160298.81;;;23.64
60936;BMP280;46804;51.786;19.520;2023-07-13T18:00:56;160204.22;;;23.28
60936;BMP280;46804;51.786;19.520;2023-07-13T18:04:56;160223.63;;;23.36
60936;BMP280;46804;51.786;19.520;2023-07-13T18:08:59;160205.50;;;23.29
60936;BMP280;46804;51.786;19.520;2023-07-13T18:13:00;159993.22;;;22.48
60936;BMP280;46804;51.786;19.520;2023-07-13T18:17:01;159619.38;;;21.06
60936;BMP280;46804;51.786;19.520;2023-07-13T18:21:01;159655.56;;;21.19
60936;BMP280;46804;51.786;19.520;2023-07-13T18:25:11;159637.47;;;21.12
60936;BMP280;46804;51.786;19.520;2023-07-13T18:29:12;159602.56;;;20.99
60936;BMP280;46804;51.786;19.520;2023-07-13T18:33:23;159580.59;;;20.91
60936;BMP280;46804;51.786;19.520;2023-07-13T18:37:24;159525.00;;;20.70
60936;BMP280;46804;51.786;19.520;2023-07-13T18:41:25;159513.34;;;20.65
60936;BMP280;46804;51.786;19.520;2023-07-13T18:45:26;159464.19;;;20.46
60936;BMP280;46804;51.786;19.520;2023-07-13T18:49:27;159429.31;;;20.33
60936;BMP280;46804;51.786;19.520;2023-07-13T18:53:27;159399.59;;;20.22
60936;BMP280;46804;51.786;19.520;2023-07-13T18:57:28;159442.25;;;20.38
60936;BMP280;46804;51.786;19.520;2023-07-13T19:01:32;159465.50;;;20.47
60936;BMP280;46804;51.786;19.520;2023-07-13T19:05:35;159428.03;;;20.33
60936;BMP280;46804;51.786;19.520;2023-07-13T19:09:37;159323.38;;;19.93
60936;BMP280;46804;51.786;19.520;2023-07-13T19:13:38;159276.84;;;19.75
60936;BMP280;46804;51.786;19.520;2023-07-13T19:17:39;159306.59;;;19.86
60936;BMP280;46804;51.786;19.520;2023-07-13T19:21:39;159319.50;;;19.91
60936;BMP280;46804;51.786;19.520;2023-07-13T19:25:40;159316.94;;;19.90
60936;BMP280;46804;51.786;19.520;2023-07-13T19:29:41;159314.31;;;19.89
60936;BMP280;46804;51.786;19.520;2023-07-13T19:33:42;159205.78;;;19.48
60936;BMP280;46804;51.786;19.520;2023-07-13T19:37:44;159212.22;;;19.50
60936;BMP280;46804;51.786;19.520;2023-07-13T19:41:45;159218.69;;;19.53
60936;BMP280;46804;51.786;19.520;2023-07-13T19:45:45;159099.94;;;19.07
60936;BMP280;46804;51.786;19.520;2023-07-13T19:49:46;159079.25;;;19.00
60936;BMP280;46804;51.786;19.520;2023-07-13T19:53:53;159088.25;;;19.03
60936;BMP280;46804;51.786;19.520;2023-07-13T19:57:55;159098.59;;;19.07
60936;BMP280;46804;51.786;19.520;2023-07-13T20:01:56;159031.47;;;18.81
60936;BMP280;46804;51.786;19.520;2023-07-13T20:05:58;159000.47;;;18.70
60936;BMP280;46804;51.786;19.520;2023-07-13T20:09:59;158969.50;;;18.58
60936;BMP280;46804;51.786;19.520;2023-07-13T20:13:59;158930.78;;;18.43
60936;BMP280;46804;51.786;19.520;2023-07-13T20:18:01;158952.72;;;18.51
60936;BMP280;46804;51.786;19.520;2023-07-13T20:22:07;158890.75;;;18.28
60936;BMP280;46804;51.786;19.520;2023-07-13T20:26:11;158880.44;;;18.24
60936;BMP280;46804;51.786;19.520;2023-07-13T20:30:12;158875.28;;;18.22
60936;BMP280;46804;51.786;19.520;2023-07-13T20:34:24;158883.00;;;18.25
60936;BMP280;46804;51.786;19.520;2023-07-13T20:38:26;158870.09;;;18.20
60936;BMP280;46804;51.786;19.520;2023-07-13T20:42:26;158810.72;;;17.97
60936;BMP280;46804;51.786;19.520;2023-07-13T20:46:27;158815.88;;;17.99
60936;BMP280;46804;51.786;19.520;2023-07-13T20:50:29;158818.44;;;18.00
60936;BMP280;46804;51.786;19.520;2023-07-13T20:54:30;158801.69;;;17.94
60936;BMP280;46804;51.786;19.520;2023-07-13T20:58:31;158791.34;;;17.90
60936;BMP280;46804;51.786;19.520;2023-07-13T21:02:32;158790.06;;;17.89
60936;BMP280;46804;51.786;19.520;2023-07-13T21:06:33;158826.16;;;18.03
60936;BMP280;46804;51.786;19.520;2023-07-13T21:10:34;158836.56;;;18.07
60936;BMP280;46804;51.786;19.520;2023-07-13T21:14:34;158827.50;;;18.03
60936;BMP280;46804;51.786;19.520;2023-07-13T21:18:36;158848.16;;;18.11
60936;BMP280;46804;51.786;19.520;2023-07-13T21:22:37;158841.72;;;18.09
60936;BMP280;46804;51.786;19.520;2023-07-13T21:26:38;158787.50;;;17.88
60936;BMP280;46804;51.786;19.520;2023-07-13T21:30:40;158782.34;;;17.86
60936;BMP280;46804;51.786;19.520;2023-07-13T21:34:41;158793.94;;;17.91
60936;BMP280;46804;51.786;19.520;2023-07-13T21:38:43;158818.44;;;18.00
60936;BMP280;46804;51.786;19.520;2023-07-13T21:42:46;158809.44;;;17.97
60936;BMP280;46804;51.786;19.520;2023-07-13T21:46:46;158826.16;;;18.03
60936;BMP280;46804;51.786;19.520;2023-07-13T21:50:50;158841.72;;;18.09
60936;BMP280;46804;51.786;19.520;2023-07-13T21:54:53;158840.44;;;18.08
60936;BMP280;46804;51.786;19.520;2023-07-13T21:58:54;158808.13;;;17.96
60936;BMP280;46804;51.786;19.520;2023-07-13T22:02:56;158834.00;;;18.06
60936;BMP280;46804;51.786;19.520;2023-07-13T22:06:57;158822.34;;;18.02
60936;BMP280;46804;51.786;19.520;2023-07-13T22:11:09;158844.31;;;18.10
60936;BMP280;46804;51.786;19.520;2023-07-13T22:15:10;158857.22;;;18.15
60936;BMP280;46804;51.786;19.520;2023-07-13T22:19:17;158868.81;;;18.19
60936;BMP280;46804;51.786;19.520;2023-07-13T22:23:22;158872.72;;;18.21
60936;BMP280;46804;51.786;19.520;2023-07-13T22:27:23;158868.81;;;18.19
60936;BMP280;46804;51.786;19.520;2023-07-13T22:31:28;158846.88;;;18.11
60936;BMP280;46804;51.786;19.520;2023-07-13T22:35:29;158841.72;;;18.09
60936;BMP280;46804;51.786;19.520;2023-07-13T22:39:32;158835.28;;;18.06
60936;BMP280;46804;51.786;19.520;2023-07-13T22:43:33;158837.88;;;18.07
60936;BMP280;46804;51.786;19.520;2023-07-13T22:47:33;158823.59;;;18.02
60936;BMP280;46804;51.786;19.520;2023-07-13T22:51:34;158818.44;;;18.00
60936;BMP280;46804;51.786;19.520;2023-07-13T22:55:34;158805.56;;;17.95
60936;BMP280;46804;51.786;19.520;2023-07-13T22:59:35;158786.19;;;17.88
60936;BMP280;46804;51.786;19.520;2023-07-13T23:03:37;158764.28;;;17.79
60936;BMP280;46804;51.786;19.520;2023-07-13T23:07:38;158748.81;;;17.73
60936;BMP280;46804;51.786;19.520;2023-07-13T23:11:39;158730.75;;;17.67